createdAt,value
2019-06-10T00:00:55.546Z,3.98
2019-06-10T00:03:25.017Z,4.37
2019-06-10T00:05:55.626Z,6.55
2019-06-10T00:08:25.137Z,5.10
2019-06-10T00:10:54.586Z,5.92
2019-06-10T00:13:24.133Z,4.85
2019-06-10T00:15:53.750Z,4.95
2019-06-10T00:18:39.871Z,4.20
2019-06-10T00:20:54.310Z,4.20
2019-06-10T00:23:23.761Z,4.08
2019-06-10T00:25:53.305Z,3.45
2019-06-10T00:28:22.754Z,3.65
2019-06-10T00:30:52.273Z,3.50
2019-06-10T00:33:21.763Z,3.55
2019-06-10T00:35:51.566Z,4.50
2019-06-10T00:40:51.457Z,5.62
2019-06-10T00:45:51.468Z,5.35
2019-06-10T00:48:26.179Z,4.58
2019-06-10T00:50:52.257Z,4.55
2019-06-10T00:53:21.706Z,3.37
2019-06-10T00:56:17.379Z,3.77
2019-06-10T00:58:46.823Z,3.17
2019-06-10T01:01:16.361Z,3.27
2019-06-10T01:03:45.809Z,2.87
2019-06-10T01:06:15.358Z,3.20
2019-06-10T01:08:45.873Z,2.85
2019-06-10T01:11:21.263Z,3.22
2019-06-10T01:13:46.474Z,3.37
2019-06-10T01:16:16.141Z,3.02
2019-06-10T01:18:45.589Z,2.52
2019-06-10T01:21:15.549Z,2.80
2019-06-10T01:23:45.098Z,3.83
2019-06-10T01:26:16.345Z,3.40
2019-06-10T01:28:45.714Z,3.67
2019-06-10T01:31:19.217Z,3.58
2019-06-10T01:33:46.312Z,3.55
2019-06-10T01:36:26.673Z,3.75
2019-06-10T01:38:56.126Z,3.55
2019-06-10T01:41:25.602Z,3.72
2019-06-10T01:43:55.125Z,4.12
2019-06-10T01:46:24.661Z,4.47
2019-06-10T01:48:54.116Z,4.47
2019-06-10T01:51:23.636Z,4.15
2019-06-10T01:53:53.148Z,4.78
2019-06-10T01:56:22.632Z,4.53
2019-06-10T01:58:53.368Z,4.50
2019-06-10T02:01:27.374Z,5.22
2019-06-10T02:03:56.812Z,6.92
2019-06-10T02:06:26.367Z,6.65
2019-06-10T02:09:06.430Z,6.65
2019-06-10T02:11:37.021Z,7.35
2019-06-10T02:14:07.152Z,6.92
2019-06-10T02:16:43.558Z,7.53
2019-06-10T02:19:15.487Z,7.42
2019-06-10T02:21:44.096Z,6.85
2019-06-10T02:24:14.785Z,7.12
2019-06-10T02:26:44.662Z,6.75
2019-06-10T02:29:14.694Z,6.37
2019-06-10T02:31:45.340Z,6.33
2019-06-10T02:34:18.333Z,6.33
2019-06-10T02:36:45.971Z,5.67
2019-06-10T02:39:21.461Z,6.35
2019-06-10T02:41:46.501Z,5.72
2019-06-10T02:44:21.800Z,6.35
2019-06-10T02:46:48.194Z,6.97
2019-06-10T02:49:35.577Z,6.12
2019-06-10T02:51:48.734Z,5.95
2019-06-10T02:54:20.226Z,6.15
2019-06-10T02:56:49.277Z,6.65
2019-06-10T02:59:21.768Z,5.75
2019-06-10T03:01:53.424Z,5.60
2019-06-10T03:04:26.712Z,5.42
2019-06-10T03:06:54.307Z,4.75
2019-06-10T03:09:29.143Z,4.62
2019-06-10T03:11:56.165Z,4.90
2019-06-10T03:14:25.602Z,4.72
2019-06-10T03:16:56.704Z,4.90
2019-06-10T03:19:41.921Z,5.08
2019-06-10T03:21:57.244Z,4.40
2019-06-10T03:24:27.509Z,5.35
2019-06-10T03:26:57.158Z,4.25
2019-06-10T03:29:28.100Z,4.83
2019-06-10T03:31:58.851Z,5.35
2019-06-10T03:34:36.011Z,4.50
2019-06-10T03:36:59.380Z,4.33
2019-06-10T03:39:28.829Z,4.28
2019-06-10T03:41:58.318Z,4.53
2019-06-10T03:44:28.733Z,4.50
2019-06-10T03:46:58.200Z,5.70
2019-06-10T03:49:28.825Z,5.83
2019-06-10T03:51:58.416Z,6.80
2019-06-10T03:54:29.450Z,7.03
2019-06-10T03:56:59.046Z,7.72
2019-06-10T03:59:29.634Z,6.97
2019-06-10T04:01:59.593Z,7.20
2019-06-10T04:04:29.074Z,7.45
2019-06-10T04:06:58.517Z,6.47
2019-06-10T04:09:28.881Z,5.70
2019-06-10T04:11:58.436Z,5.95
2019-06-10T04:14:28.487Z,5.90
2019-06-10T04:16:58.063Z,6.35
2019-06-10T04:19:28.750Z,6.60
2019-06-10T04:21:58.545Z,6.67
2019-06-10T04:24:28.631Z,6.12
2019-06-10T04:26:58.177Z,6.10
2019-06-10T04:29:28.954Z,6.45
2019-06-10T04:31:58.636Z,6.75
2019-06-10T04:34:30.132Z,5.83
2019-06-10T04:36:59.180Z,7.17
2019-06-10T04:39:29.267Z,6.83
2019-06-10T04:41:58.710Z,6.45
2019-06-10T04:44:29.379Z,6.22
2019-06-10T04:46:58.933Z,5.85
2019-06-10T04:49:29.771Z,5.12
2019-06-10T04:52:02.832Z,5.35
2019-06-10T04:54:33.235Z,5.40
2019-06-10T04:57:02.582Z,5.22
2019-06-10T04:59:33.686Z,5.90
2019-06-10T05:02:05.648Z,6.12
2019-06-10T05:04:34.219Z,6.33
2019-06-10T05:07:03.729Z,6.30
2019-06-10T05:09:33.648Z,5.75
2019-06-10T05:12:03.249Z,6.20
2019-06-10T05:14:33.408Z,4.78
2019-06-10T05:17:03.165Z,4.60
2019-06-10T05:19:33.829Z,4.80
2019-06-10T05:22:03.457Z,4.75
2019-06-10T05:24:34.375Z,4.20
2019-06-10T05:27:04.062Z,4.40
2019-06-10T05:29:34.152Z,4.25
2019-06-10T05:32:04.937Z,4.15
2019-06-10T05:34:34.846Z,3.92
2019-06-10T05:37:04.517Z,4.30
2019-06-10T05:39:35.120Z,5.25
2019-06-10T05:42:04.973Z,5.70
2019-06-10T05:44:34.708Z,5.83
2019-06-10T05:47:04.763Z,5.62
2019-06-10T05:52:04.501Z,6.37
2019-06-10T05:54:35.478Z,5.45
2019-06-10T05:59:35.472Z,6.75
2019-06-10T06:02:04.934Z,4.50
2019-06-10T06:04:35.926Z,5.97
2019-06-10T06:07:05.789Z,7.00
2019-06-10T06:09:35.458Z,6.92
2019-06-10T06:12:05.339Z,6.70
2019-06-10T06:14:36.133Z,6.80
2019-06-10T06:17:05.650Z,7.30
2019-06-10T06:19:37.377Z,7.95
2019-06-10T06:22:06.338Z,7.78
2019-06-10T06:24:35.834Z,7.12
2019-06-10T06:27:05.331Z,6.55
2019-06-10T06:29:36.609Z,7.53
2019-06-10T06:32:05.878Z,6.60
2019-06-10T06:34:37.453Z,6.33
2019-06-10T06:37:06.485Z,4.78
2019-06-10T06:39:37.059Z,4.90
2019-06-10T06:42:07.153Z,4.80
2019-06-10T06:44:38.124Z,4.22
2019-06-10T06:47:07.764Z,4.62
2019-06-10T06:49:38.522Z,4.65
2019-06-10T06:52:08.049Z,3.80
2019-06-10T06:54:38.124Z,4.47
2019-06-10T06:57:08.774Z,4.35
2019-06-10T06:59:39.078Z,4.08
2019-06-10T07:02:09.389Z,6.45
2019-06-10T07:04:38.930Z,6.53
2019-06-10T07:07:09.802Z,6.50
2019-06-10T07:09:42.776Z,5.40
2019-06-10T07:12:12.899Z,5.53
2019-06-10T07:14:45.114Z,5.95
2019-06-10T07:17:14.525Z,6.20
2019-06-10T07:19:45.845Z,5.17
2019-06-10T07:22:16.326Z,5.17
2019-06-10T07:24:47.658Z,5.53
2019-06-10T07:27:16.996Z,4.50
2019-06-10T07:29:47.350Z,4.65
2019-06-10T07:32:17.012Z,3.80
2019-06-10T07:34:47.024Z,3.22
2019-06-10T07:37:16.696Z,3.70
2019-06-10T07:39:46.174Z,3.85
2019-06-10T07:42:15.605Z,4.45
2019-06-10T07:44:45.394Z,3.87
2019-06-10T07:47:14.822Z,4.08
2019-06-10T07:49:45.572Z,4.22
2019-06-10T07:52:19.689Z,3.77
2019-06-10T07:54:46.430Z,4.17
2019-06-10T07:57:16.022Z,4.70
2019-06-10T07:59:45.986Z,4.85
2019-06-10T08:02:42.823Z,4.50
2019-06-10T08:05:12.831Z,4.70
2019-06-10T08:07:45.082Z,5.17
2019-06-10T08:10:13.746Z,4.47
2019-06-10T08:12:44.782Z,4.97
2019-06-10T08:15:14.521Z,4.85
2019-06-10T08:17:45.643Z,4.40
2019-06-10T08:20:17.442Z,4.72
2019-06-10T08:22:52.586Z,4.78
2019-06-10T08:25:18.125Z,5.35
2019-06-10T08:27:53.038Z,4.67
2019-06-10T08:30:27.263Z,4.20
2019-06-10T08:32:56.523Z,5.17
2019-06-10T08:35:37.935Z,4.47
2019-06-10T08:37:55.826Z,4.70
2019-06-10T08:40:25.374Z,4.78
2019-06-10T08:42:54.887Z,5.00
2019-06-10T08:45:24.488Z,4.60
2019-06-10T08:47:54.285Z,5.37
2019-06-10T08:50:24.802Z,4.75
2019-06-10T08:53:13.262Z,4.72
2019-06-10T08:55:26.582Z,5.35
2019-06-10T08:57:56.165Z,5.03
2019-06-10T09:00:26.185Z,4.97
2019-06-10T09:05:24.373Z,3.92
2019-06-10T09:07:54.610Z,4.10
2019-06-10T09:10:26.165Z,3.77
2019-06-10T09:12:55.689Z,3.77
2019-06-10T09:15:25.514Z,4.00
2019-06-10T09:17:56.166Z,4.45
2019-06-10T09:20:26.746Z,4.10
2019-06-10T09:23:16.795Z,4.42
2019-06-10T09:25:27.525Z,4.75
2019-06-10T09:27:57.071Z,4.95
2019-06-10T09:30:27.014Z,4.62
2019-06-10T09:35:26.776Z,5.47
2019-06-10T09:37:57.141Z,6.30
2019-06-10T09:40:48.382Z,5.37
2019-06-10T09:43:16.644Z,5.50
2019-06-10T09:48:22.800Z,5.53
2019-06-10T09:50:57.828Z,5.20
2019-06-10T09:53:33.533Z,5.25
2019-06-10T09:56:03.846Z,5.40
2019-06-10T09:58:32.962Z,4.42
2019-06-10T10:01:03.423Z,4.33
2019-06-10T10:03:42.398Z,5.03
2019-06-10T10:06:15.975Z,4.62
2019-06-10T10:08:57.473Z,4.62
2019-06-10T10:11:34.965Z,4.30
2019-06-10T10:16:34.956Z,4.72
2019-06-10T10:19:05.480Z,5.08
2019-06-10T10:21:35.250Z,4.95
2019-06-10T10:24:10.599Z,5.05
2019-06-10T10:26:36.101Z,4.90
2019-06-10T10:29:05.707Z,4.72
2019-06-10T10:31:35.291Z,4.45
2019-06-10T10:34:04.842Z,3.80
2019-06-10T10:36:34.339Z,4.25
2019-06-10T10:39:05.422Z,3.98
2019-06-10T10:41:36.447Z,4.30
2019-06-10T10:46:39.832Z,4.53
2019-06-10T10:49:09.296Z,4.40
2019-06-10T10:51:38.819Z,4.35
2019-06-10T10:54:22.506Z,3.83
2019-06-10T10:56:39.371Z,4.40
2019-06-10T10:59:08.882Z,3.72
2019-06-10T11:01:38.372Z,4.28
2019-06-10T11:04:07.882Z,11.73
2019-06-10T11:06:37.410Z,4.53
2019-06-10T11:09:09.035Z,4.08
2019-06-10T11:11:43.113Z,5.15
2019-06-10T11:14:14.977Z,4.05
2019-06-10T11:16:43.352Z,3.80
2019-06-10T11:19:13.089Z,3.83
2019-06-10T11:21:43.244Z,4.33
2019-06-10T11:24:15.812Z,3.75
2019-06-10T11:26:43.957Z,5.03
2019-06-10T11:29:13.431Z,4.92
2019-06-10T11:31:42.966Z,4.12
2019-06-10T11:34:12.515Z,3.70
2019-06-10T11:36:42.694Z,3.98
2019-06-10T11:39:13.392Z,3.75
2019-06-10T11:41:43.727Z,3.77
2019-06-10T11:44:14.777Z,4.10
2019-06-10T11:49:12.849Z,4.03
2019-06-10T11:51:42.298Z,4.03
2019-06-10T11:54:13.032Z,3.80
2019-06-10T11:56:42.481Z,3.60
2019-06-10T11:59:13.476Z,4.05
2019-06-10T12:01:43.178Z,3.35
2019-06-10T12:04:13.016Z,3.75
2019-06-10T12:06:43.758Z,3.27
2019-06-10T12:09:13.702Z,3.27
2019-06-10T12:11:43.993Z,3.45
2019-06-10T12:14:13.613Z,3.70
2019-06-10T12:19:15.121Z,3.27
2019-06-10T12:21:44.569Z,3.45
2019-06-10T12:24:14.037Z,3.33
2019-06-10T12:26:43.645Z,3.15
2019-06-10T12:29:14.127Z,3.05
2019-06-10T12:31:43.600Z,3.17
2019-06-10T12:34:13.097Z,2.90
2019-06-10T12:36:42.547Z,2.95
2019-06-10T12:39:15.680Z,3.52
2019-06-10T12:41:43.240Z,3.50
2019-06-10T12:44:13.270Z,3.92
2019-06-10T12:46:43.377Z,9.08
2019-06-10T12:49:18.136Z,3.27
2019-06-10T12:51:45.052Z,3.08
2019-06-10T12:54:14.526Z,3.58
2019-06-10T12:56:43.974Z,4.70
2019-06-10T12:59:13.806Z,4.22
2019-06-10T13:01:45.035Z,3.50
2019-06-10T13:04:15.369Z,3.50
2019-06-10T13:06:47.926Z,3.87
2019-06-10T13:09:18.929Z,4.03
2019-06-10T13:11:48.381Z,3.45
2019-06-10T13:14:18.481Z,3.70
2019-06-10T13:16:48.093Z,5.95
2019-06-10T13:19:17.566Z,5.78
2019-06-10T13:21:47.090Z,5.17
2019-06-10T13:24:16.561Z,4.25
2019-06-10T13:26:46.000Z,3.47
2019-06-10T13:29:17.715Z,3.58
2019-06-10T13:31:46.534Z,3.50
2019-06-10T13:34:16.028Z,3.80
2019-06-10T13:36:45.465Z,4.20
2019-06-10T13:39:14.917Z,4.00
2019-06-10T13:41:44.463Z,4.30
2019-06-10T13:44:16.557Z,4.03
2019-06-10T13:46:45.006Z,4.05
2019-06-10T13:49:15.514Z,4.97
2019-06-10T13:51:45.127Z,4.50
2019-06-10T13:54:14.565Z,4.85
2019-06-10T13:56:47.410Z,4.87
2019-06-10T13:59:16.177Z,4.08
2019-06-10T14:01:45.645Z,3.92
2019-06-10T14:04:21.557Z,5.10
2019-06-10T14:06:50.579Z,4.60
2019-06-10T14:09:19.356Z,4.30
2019-06-10T14:11:48.837Z,10.03
2019-06-10T14:14:24.026Z,4.50
2019-06-10T14:16:54.099Z,4.75
2019-06-10T14:19:24.121Z,5.40
2019-06-10T14:21:53.584Z,5.30
2019-06-10T14:24:23.098Z,5.40
2019-06-10T14:26:53.148Z,5.45
2019-06-10T14:29:22.741Z,5.85
2019-06-10T14:31:53.510Z,7.20
2019-06-10T14:34:23.115Z,5.30
2019-06-10T14:36:52.653Z,5.30
2019-06-10T14:39:22.251Z,5.72
2019-06-10T14:41:52.313Z,6.45
2019-06-10T14:44:23.419Z,6.10
2019-06-10T14:46:53.241Z,6.35
2019-06-10T14:49:22.685Z,6.10
2019-06-10T14:51:53.812Z,6.35
2019-06-10T14:54:23.214Z,6.12
2019-06-10T14:56:56.954Z,6.25
2019-06-10T14:59:23.758Z,6.65
2019-06-10T15:01:53.235Z,6.17
2019-06-10T15:04:22.689Z,7.45
2019-06-10T15:06:53.717Z,6.65
2019-06-10T15:09:24.482Z,7.53
2019-06-10T15:11:53.949Z,6.87
2019-06-10T15:14:23.511Z,8.33
2019-06-10T15:16:54.154Z,7.00
2019-06-10T15:19:28.647Z,7.00
2019-06-10T15:21:54.697Z,8.00
2019-06-10T15:24:24.142Z,8.60
2019-06-10T15:27:09.101Z,6.87
2019-06-10T15:29:25.752Z,7.10
2019-06-10T15:32:09.232Z,6.45
2019-06-10T15:34:26.357Z,6.08
2019-06-10T15:36:55.825Z,6.33
2019-06-10T15:39:25.271Z,6.58
2019-06-10T15:41:54.743Z,6.30
2019-06-10T15:44:47.498Z,6.42
2019-06-10T15:46:55.353Z,6.67
2019-06-10T15:49:26.185Z,6.83
2019-06-10T15:51:55.779Z,6.97
2019-06-10T15:54:25.562Z,6.55
2019-06-10T15:56:56.502Z,7.90
2019-06-10T15:59:30.114Z,7.95
2019-06-10T16:02:02.393Z,7.37
2019-06-10T16:04:35.134Z,7.15
2019-06-10T16:07:02.911Z,7.33
2019-06-10T16:09:32.370Z,8.05
2019-06-10T16:12:02.979Z,7.37
2019-06-10T16:14:35.240Z,7.58
2019-06-10T16:17:04.777Z,7.65
2019-06-10T16:19:34.235Z,7.28
2019-06-10T16:22:04.864Z,7.85
2019-06-10T16:24:34.382Z,6.78
2019-06-10T16:27:03.937Z,7.53
2019-06-10T16:29:34.446Z,7.35
2019-06-10T16:32:03.923Z,7.55
2019-06-10T16:34:33.381Z,7.95
2019-06-10T16:37:02.856Z,6.90
2019-06-10T16:39:32.690Z,7.83
2019-06-10T16:42:02.988Z,9.90
2019-06-10T16:44:33.124Z,8.80
2019-06-10T16:47:03.197Z,8.40
2019-06-10T16:49:32.971Z,8.33
2019-06-10T16:52:03.019Z,8.73
2019-06-10T16:54:33.155Z,9.70
2019-06-10T16:59:33.832Z,9.55
2019-06-10T17:02:16.922Z,10.38
2019-06-10T17:04:47.682Z,9.93
2019-06-10T17:07:18.431Z,9.70
2019-06-10T17:09:47.882Z,7.55
2019-06-10T17:12:17.755Z,19.12
2019-06-10T17:14:47.321Z,9.63
2019-06-10T17:17:16.869Z,36.70
2019-06-10T17:19:46.354Z,12.00
2019-06-10T17:22:15.801Z,15.10
2019-06-10T17:24:45.398Z,12.70
2019-06-10T17:27:14.857Z,8.65
2019-06-10T17:29:44.333Z,9.43
2019-06-10T17:32:13.908Z,8.90
2019-06-10T17:34:44.444Z,7.75
2019-06-10T17:37:14.387Z,8.05
2019-06-10T17:42:13.593Z,8.45
2019-06-10T17:44:43.066Z,7.65
2019-06-10T17:47:13.257Z,7.78
2019-06-10T17:49:42.985Z,7.90
2019-06-10T17:52:13.083Z,7.95
2019-06-10T17:54:42.665Z,7.12
2019-06-10T17:57:12.781Z,7.30
2019-06-10T18:00:12.189Z,7.30
2019-06-10T18:02:39.419Z,6.92
2019-06-10T18:05:09.275Z,6.42
2019-06-10T18:07:38.800Z,6.70
2019-06-10T18:10:08.913Z,6.90
2019-06-10T18:12:38.358Z,7.67
2019-06-10T18:15:08.371Z,7.03
2019-06-10T18:17:37.825Z,7.75
2019-06-10T18:20:07.942Z,7.80
2019-06-10T18:22:37.394Z,7.53
2019-06-10T18:25:07.696Z,8.90
2019-06-10T18:27:37.150Z,7.95
2019-06-10T18:30:13.352Z,8.38
2019-06-10T18:32:38.922Z,7.60
2019-06-10T18:35:09.237Z,8.65
2019-06-10T18:37:39.158Z,7.67
2019-06-10T18:42:39.013Z,7.80
2019-06-10T18:47:42.340Z,7.95
2019-06-10T18:50:13.895Z,7.92
2019-06-10T18:52:43.493Z,8.78
2019-06-10T18:55:14.035Z,9.05
2019-06-10T18:57:43.552Z,8.98
2019-06-10T19:00:14.771Z,8.80
2019-06-10T19:02:44.313Z,8.58
2019-06-10T19:05:15.602Z,9.45
2019-06-10T19:07:46.861Z,8.90
2019-06-10T19:10:16.785Z,9.48
2019-06-10T19:12:46.238Z,9.13
2019-06-10T19:15:16.354Z,10.45
2019-06-10T19:17:45.879Z,10.38
2019-06-10T19:20:15.900Z,10.95
2019-06-10T19:22:45.345Z,11.38
2019-06-10T19:25:17.165Z,10.75
2019-06-10T19:27:46.690Z,9.58
2019-06-10T19:30:16.913Z,9.65
2019-06-10T19:32:46.353Z,9.03
2019-06-10T19:35:16.268Z,9.55
2019-06-10T19:40:15.161Z,8.10
2019-06-10T19:42:44.842Z,8.13
2019-06-10T19:45:14.630Z,7.50
2019-06-10T19:47:45.707Z,7.65
2019-06-10T19:50:15.404Z,8.15
2019-06-10T19:52:45.510Z,7.47
2019-06-10T19:55:15.461Z,8.05
2019-06-10T19:57:44.910Z,7.80
2019-06-10T20:00:15.329Z,7.85
2019-06-10T20:02:46.919Z,7.03
2019-06-10T20:05:16.248Z,7.72
2019-06-10T20:07:50.342Z,7.75
2019-06-10T20:10:18.185Z,8.13
2019-06-10T20:12:48.597Z,7.25
2019-06-10T20:15:22.675Z,10.40
2019-06-10T20:17:53.924Z,9.50
2019-06-10T20:20:23.537Z,9.90
2019-06-10T20:22:55.110Z,9.78
2019-06-10T20:25:26.714Z,9.30
2019-06-10T20:27:56.176Z,10.23
2019-06-10T20:30:28.897Z,11.95
2019-06-10T20:32:57.198Z,10.90
2019-06-10T20:35:26.785Z,11.12
2019-06-10T20:37:56.262Z,10.78
2019-06-10T20:40:25.726Z,10.72
2019-06-10T20:42:55.211Z,9.80
2019-06-10T20:45:24.657Z,9.58
2019-06-10T20:47:54.138Z,10.72
2019-06-10T20:50:23.821Z,8.98
2019-06-10T20:52:53.374Z,9.10
2019-06-10T20:55:24.732Z,9.83
2019-06-10T20:58:03.043Z,8.58
2019-06-10T21:00:40.555Z,8.20
2019-06-10T21:03:08.650Z,6.97
2019-06-10T21:05:39.449Z,7.90
2019-06-10T21:08:09.181Z,8.33
2019-06-10T21:10:39.844Z,11.60
2019-06-10T21:13:09.430Z,10.95
2019-06-10T21:15:40.535Z,14.18
2019-06-10T21:18:10.054Z,12.73
2019-06-10T21:20:41.325Z,14.07
2019-06-10T21:23:13.762Z,13.62
2019-06-10T21:25:45.777Z,18.60
2019-06-10T21:28:14.218Z,18.90
2019-06-10T21:30:49.622Z,19.67
2019-06-10T21:33:14.862Z,19.80
2019-06-10T21:35:46.883Z,19.67
2019-06-10T21:38:15.531Z,18.60
2019-06-10T21:40:45.477Z,20.37
2019-06-10T21:43:16.178Z,17.17
2019-06-10T21:45:53.334Z,17.73
2019-06-10T21:48:17.935Z,17.32
2019-06-10T21:50:48.721Z,16.62
2019-06-10T21:53:18.489Z,17.02
2019-06-10T21:55:48.746Z,18.52
2019-06-10T21:58:18.330Z,18.05
2019-06-10T22:01:01.193Z,18.25
2019-06-10T22:03:23.397Z,18.45
2019-06-10T22:05:53.684Z,17.90
2019-06-10T22:08:23.334Z,18.82
2019-06-10T22:14:16.796Z,15.90
2019-06-10T22:16:46.382Z,13.10
2019-06-10T22:19:15.862Z,10.80
2019-06-10T22:21:46.435Z,11.05
2019-06-10T22:24:15.989Z,9.70
2019-06-10T22:26:45.433Z,9.68
2019-06-10T22:29:14.917Z,10.25
2019-06-10T22:31:45.211Z,9.55
2019-06-10T22:34:14.749Z,9.43
2019-06-10T22:36:45.480Z,10.35
2019-06-10T22:39:16.020Z,11.12
2019-06-10T22:41:46.772Z,10.93
2019-06-10T22:44:16.425Z,10.75
2019-06-10T22:46:45.886Z,11.35
2019-06-10T22:49:15.361Z,11.20
2019-06-10T22:51:44.813Z,13.40
2019-06-10T22:54:14.288Z,11.15
2019-06-10T22:56:43.753Z,11.63
2019-06-10T22:59:13.294Z,11.68
2019-06-10T23:01:42.799Z,13.38
2019-06-10T23:04:13.474Z,12.35
2019-06-10T23:06:43.024Z,13.05
2019-06-10T23:09:12.979Z,15.25
2019-06-10T23:11:42.568Z,13.65
2019-06-10T23:14:12.355Z,15.43
2019-06-10T23:19:13.034Z,16.02
2019-06-10T23:21:43.693Z,15.65
2019-06-10T23:24:13.546Z,16.90
2019-06-10T23:29:12.347Z,15.55
2019-06-10T23:34:16.633Z,16.32
2019-06-10T23:36:43.295Z,17.07
2019-06-10T23:39:13.213Z,17.05
2019-06-10T23:44:12.957Z,16.77
2019-06-10T23:46:42.670Z,20.52
2019-06-10T23:49:12.418Z,17.27
2019-06-10T23:51:42.368Z,17.32
2019-06-10T23:56:42.821Z,14.43
2019-06-10T23:59:12.388Z,16.95
